Time;durP1;ratioP1;P1;durP2;ratioP2;P2;SDS_P1;SDS_P2;PMS_P1;PMS_P2;Temp;Humidity;BMP_temperature;BMP_pressure;BME280_temperature;BME280_humidity;BME280_pressure;Samples;Min_cycle;Max_cycle;Signal;HPM_P1;HPM_P2
2023/06/12 00:00:20;;;;;;;5.77;5.27;;;;;;;16.32;73.41;97934.97;5051507;28;20210;-76
2023/06/12 00:02:46;;;;;;;5.93;5.40;;;;;;;16.29;73.39;97937.94;5052344;28;20208;-76
2023/06/12 00:05:20;;;;;;;5.60;5.10;;;;;;;16.28;74.30;97944.25;5052191;28;20650;-76
2023/06/12 00:07:47;;;;;;;5.57;5.07;;;;;;;16.24;73.86;97942.88;5052061;28;20621;-75
2023/06/12 00:10:14;;;;;;;5.90;5.40;;;;;;;16.24;74.18;97936.69;5051286;28;20236;-76
2023/06/12 00:12:41;;;;;;;6.53;5.47;;;;;;;16.17;75.85;97941.78;5052102;28;20589;-76
2023/06/12 00:15:08;;;;;;;5.70;5.20;;;;;;;16.13;76.31;97943.03;5052031;28;20242;-75
2023/06/12 00:17:36;;;;;;;6.27;5.60;;;;;;;16.12;76.44;97940.50;5051945;28;20208;-75
2023/06/12 00:20:05;;;;;;;5.47;4.97;;;;;;;16.12;76.32;97942.34;5051184;28;20211;-75
2023/06/12 00:22:31;;;;;;;5.90;5.40;;;;;;;16.12;75.50;97942.34;5051776;28;20215;-75
2023/06/12 00:24:58;;;;;;;6.13;5.53;;;;;;;16.10;75.60;97940.66;5051610;28;20239;-75
2023/06/12 00:27:24;;;;;;;5.37;4.90;;;;;;;16.09;75.18;97938.97;5051900;28;20208;-75
2023/06/12 00:29:51;;;;;;;5.50;5.00;;;;;;;16.09;75.92;97933.63;5050864;28;20235;-75
2023/06/12 00:32:17;;;;;;;6.17;5.57;;;;;;;16.07;76.06;97934.75;5051538;28;20208;-75
2023/06/12 00:34:45;;;;;;;5.77;5.27;;;;;;;16.02;76.72;97932.53;5051593;28;20608;-75
2023/06/12 00:37:12;;;;;;;6.63;5.40;;;;;;;16.04;76.78;97937.72;5051447;28;20591;-75
2023/06/12 00:39:39;;;;;;;5.47;5.07;;;;;;;16.03;76.81;97936.88;5050710;28;20219;-75
2023/06/12 00:42:06;;;;;;;6.13;5.53;;;;;;;16.04;76.80;97933.22;5051553;28;20283;-75
2023/06/12 00:44:32;;;;;;;5.43;4.93;;;;;;;16.04;76.67;97941.22;5051585;28;20228;-76
2023/06/12 00:47:00;;;;;;;6.00;5.37;;;;;;;16.01;77.31;97934.53;5051316;28;20215;-75
2023/06/12 00:49:26;;;;;;;5.63;5.07;;;;;;;15.99;76.86;97937.31;5050689;28;20224;-75
2023/06/12 00:51:55;;;;;;;5.50;5.00;;;;;;;15.98;76.17;97946.31;5051177;28;20216;-75
2023/06/12 00:54:22;;;;;;;5.97;5.47;;;;;;;16.00;75.00;97943.50;5051492;28;20235;-75
2023/06/12 00:56:48;;;;;;;5.63;5.13;;;;;;;16.01;73.97;97929.19;5050645;28;20215;-75
2023/06/12 00:59:16;;;;;;;6.20;5.43;;;;;;;16.02;73.38;97928.19;5049890;28;20361;-76
2023/06/12 01:01:43;;;;;;;6.07;5.47;;;;;;;16.03;73.19;97934.22;5051151;28;20204;-75
2023/06/12 01:04:10;;;;;;;6.10;5.50;;;;;;;16.03;72.68;97931.53;5051208;28;20236;-75
2023/06/12 01:06:42;;;;;;;6.03;5.17;;;;;;;16.02;72.61;97927.22;5051014;28;20208;-76
2023/06/12 01:09:24;;;;;;;5.80;5.20;;;;;;;16.01;72.88;97935.34;5050598;28;20232;-75
2023/06/12 01:11:52;;;;;;;5.10;4.63;;;;;;;15.96;74.85;97928.78;5051042;28;20215;-76
2023/06/12 01:14:19;;;;;;;6.13;5.20;;;;;;;15.94;75.53;97944.09;5050957;28;20234;-75
2023/06/12 01:16:46;;;;;;;5.53;5.03;;;;;;;15.90;75.48;97942.69;5050880;28;20208;-76
2023/06/12 01:19:17;;;;;;;6.33;5.73;;;;;;;15.86;76.86;97941.28;5050463;28;20642;-75
2023/06/12 01:21:46;;;;;;;5.97;5.40;;;;;;;15.85;76.14;97939.59;5051114;28;20212;-75
2023/06/12 01:24:30;;;;;;;6.20;5.60;;;;;;;15.84;75.00;97933.44;5051114;28;20228;-75
2023/06/12 01:27:22;;;;;;;6.00;5.50;;;;;;;15.80;74.69;97931.19;5050903;28;20740;-74
2023/06/12 01:30:35;;;;;;;6.30;5.70;;;;;;;15.79;74.63;97930.34;5050017;28;20228;-75
2023/06/12 01:33:07;;;;;;;6.30;5.67;;;;;;;15.76;74.82;97932.47;5018736;28;20585;-75
2023/06/12 01:35:37;;;;;;;6.47;5.57;;;;;;;15.69;76.88;97944.66;5050644;28;20664;-74
2023/06/12 01:38:08;;;;;;;6.40;5.80;;;;;;;15.65;76.06;97938.78;5050985;28;20307;-74
2023/06/12 01:40:37;;;;;;;6.27;5.60;;;;;;;15.60;76.44;97941.03;5050332;28;20220;-75
2023/06/12 01:43:03;;;;;;;5.70;5.20;;;;;;;15.55;77.94;97939.78;5050780;28;20219;-74
2023/06/12 01:45:31;;;;;;;6.20;5.53;;;;;;;15.53;78.40;97949.72;5050678;28;20737;-75
2023/06/12 01:47:57;;;;;;;6.23;5.63;;;;;;;15.53;77.67;97939.91;5050625;28;20208;-75
2023/06/12 01:50:25;;;;;;;6.00;5.40;;;;;;;15.59;77.13;97933.19;5049821;28;20236;-74
2023/06/12 01:52:52;;;;;;;6.10;5.50;;;;;;;15.61;76.05;97931.22;5050827;28;20205;-75
2023/06/12 01:55:19;;;;;;;6.20;5.70;;;;;;;15.60;75.68;97929.53;5050667;28;20232;-75
2023/06/12 01:57:48;;;;;;;6.20;5.60;;;;;;;15.63;75.61;97931.94;5050607;28;20212;-75
2023/06/12 02:00:16;;;;;;;5.97;5.37;;;;;;;15.63;75.26;97930.09;5049933;28;20294;-75
2023/06/12 02:02:43;;;;;;;5.83;5.33;;;;;;;15.62;75.56;97927.56;5050511;28;20576;-75
2023/06/12 02:05:10;;;;;;;5.83;5.33;;;;;;;15.61;76.27;97931.22;5050655;28;20239;-75
2023/06/12 02:07:38;;;;;;;6.17;5.57;;;;;;;15.62;77.17;97932.88;5051997;28;20208;-75
2023/06/12 02:10:07;;;;;;;6.33;5.73;;;;;;;15.60;78.27;97941.03;5053596;28;20231;-75
2023/06/12 02:12:33;;;;;;;5.80;5.30;;;;;;;15.61;79.33;97937.41;5054198;28;20208;-75
2023/06/12 02:15:00;;;;;;;6.23;5.63;;;;;;;15.60;80.20;97950.84;5054184;28;20242;-75
2023/06/12 02:17:27;;;;;;;5.60;5.10;;;;;;;15.55;80.03;97953.94;5054058;28;21012;-75
2023/06/12 02:19:53;;;;;;;6.27;5.67;;;;;;;15.58;82.04;97947.50;5053555;28;20295;-74
2023/06/12 02:22:20;;;;;;;6.70;5.20;;;;;;;15.55;81.66;97955.75;5054121;28;20212;-75
2023/06/12 02:24:48;;;;;;;6.00;5.50;;;;;;;15.52;82.55;97950.72;5053940;28;20231;-75
2023/06/12 02:27:15;;;;;;;6.73;6.03;;;;;;;15.51;81.97;97951.72;5053986;28;20710;-74
2023/06/12 02:29:41;;;;;;;6.70;5.67;;;;;;;15.47;81.64;97947.63;5053134;28;20864;-75
2023/06/12 02:32:08;;;;;;;6.37;5.77;;;;;;;15.48;80.50;97949.31;5053775;28;20574;-74
2023/06/12 02:34:34;;;;;;;6.20;5.60;;;;;;;15.46;80.58;97951.28;5068648;22;20232;-90
2023/06/12 02:37:02;;;;;;;6.20;5.60;;;;;;;15.45;80.28;97946.94;5054887;28;20652;-90
2023/06/12 02:39:28;;;;;;;5.87;5.37;;;;;;;15.41;81.11;97940.19;5053935;28;20989;-90
2023/06/12 02:41:56;;;;;;;6.27;5.67;;;;;;;15.36;81.89;97943.28;5054805;28;20208;-90
2023/06/12 02:44:23;;;;;;;5.80;5.30;;;;;;;15.33;81.46;97932.09;5054421;28;20623;-90
2023/06/12 02:46:53;;;;;;;6.03;5.43;;;;;;;15.31;80.50;97939.31;5054924;28;20223;-90
2023/06/12 02:49:20;;;;;;;5.67;5.17;;;;;;;15.28;79.81;97928.97;5053398;28;20235;-90
2023/06/12 02:51:47;;;;;;;6.17;5.57;;;;;;;15.22;79.66;97929.53;5054794;28;20218;-90
2023/06/12 02:54:15;;;;;;;5.90;5.37;;;;;;;15.08;80.79;97932.56;5054575;28;20659;-90
2023/06/12 02:56:44;;;;;;;6.03;5.43;;;;;;;14.97;82.35;97940.69;5054454;28;20220;-90
2023/06/12 02:59:13;;;;;;;6.03;5.47;;;;;;;14.92;83.65;97945.59;5054430;28;20230;-91
2023/06/12 03:01:43;;;;;;;6.43;5.50;;;;;;;14.92;83.86;97943.75;5054341;28;20200;-90
2023/06/12 03:04:15;;;;;;;5.77;5.23;;;;;;;14.92;85.22;97953.56;5053899;28;20234;-90
2023/06/12 03:06:44;;;;;;;5.80;5.17;;;;;;;14.91;84.66;97949.22;5054674;28;20219;-91
2023/06/12 03:09:11;;;;;;;5.63;5.13;;;;;;;14.91;83.91;97942.06;5053289;28;20212;-90
2023/06/12 03:11:38;;;;;;;5.70;5.20;;;;;;;14.89;83.67;97937.88;5054293;28;20212;-90
2023/06/12 03:14:04;;;;;;;6.23;5.73;;;;;;;14.88;84.71;97944.16;5054357;28;20586;-90
2023/06/12 03:16:33;;;;;;;5.77;5.27;;;;;;;14.88;84.46;97958.34;5054390;28;20212;-90
2023/06/12 03:18:59;;;;;;;6.00;5.40;;;;;;;14.87;85.50;97955.78;5053368;28;20216;-90
2023/06/12 03:21:26;;;;;;;6.13;5.30;;;;;;;14.86;85.46;97956.78;5053678;28;20595;-90
2023/06/12 03:23:52;;;;;;;5.77;5.27;;;;;;;14.88;85.77;97968.97;5055518;28;20623;-90
2023/06/12 03:26:19;;;;;;;6.13;5.53;;;;;;;14.87;85.79;97961.97;5057300;28;20208;-89
2023/06/12 03:28:46;;;;;;;5.93;5.43;;;;;;;14.89;85.80;97964.47;5057094;28;20220;-89
2023/06/12 03:31:13;;;;;;;5.83;5.33;;;;;;;14.91;85.47;97967.88;5052588;28;20228;-89
2023/06/12 03:33:41;;;;;;;6.47;5.47;;;;;;;14.91;86.56;97967.88;5053481;28;20211;-90
2023/06/12 03:36:08;;;;;;;5.87;5.27;;;;;;;14.92;86.26;97966.88;5053334;28;20246;-90
2023/06/12 03:38:35;;;;;;;6.17;5.40;;;;;;;14.91;86.69;97966.03;5053494;28;20211;-89
2023/06/12 03:41:01;;;;;;;5.80;5.30;;;;;;;14.95;86.93;97971.91;5052917;28;20208;-89
2023/06/12 03:43:28;;;;;;;6.10;5.50;;;;;;;14.97;86.83;97969.97;5053614;28;20208;-90
2023/06/12 03:45:54;;;;;;;6.40;5.80;;;;;;;15.01;87.04;97969.56;5053571;28;20714;-89
2023/06/12 03:48:21;;;;;;;7.13;5.80;;;;;;;15.07;86.55;97968.16;5053434;28;20208;-89
2023/06/12 03:50:49;;;;;;;5.70;5.20;;;;;;;15.10;86.75;97973.22;5053212;28;20232;-90
2023/06/12 03:53:16;;;;;;;6.00;5.40;;;;;;;15.16;85.98;97965.50;5053259;28;20220;-89
2023/06/12 03:55:42;;;;;;;6.03;5.43;;;;;;;15.21;85.55;97975.75;5053698;28;20302;-91
2023/06/12 03:58:09;;;;;;;5.83;5.33;;;;;;;15.24;86.04;97975.47;5053277;28;20219;-89
2023/06/12 04:00:35;;;;;;;6.07;5.57;;;;;;;15.42;83.09;97979.16;5052290;28;20204;-89
2023/06/12 04:03:02;;;;;;;6.10;5.47;;;;;;;15.42;83.24;97974.69;5052945;28;20215;-89
2023/06/12 04:05:28;;;;;;;5.80;5.30;;;;;;;15.44;84.20;97980.72;5052728;28;20236;-89
2023/06/12 04:07:56;;;;;;;7.10;6.50;;;;;;;15.47;85.14;97987.59;5053034;28;20235;-90
2023/06/12 04:10:22;;;;;;;6.80;6.10;;;;;;;15.60;83.58;97993.47;5052487;28;20227;-91
2023/06/12 04:12:49;;;;;;;6.70;5.40;;;;;;;15.72;82.17;97984.34;5053138;28;20223;-89
2023/06/12 04:15:16;;;;;;;6.60;5.73;;;;;;;15.84;80.11;97985.88;5052681;28;20553;-89
2023/06/12 04:17:43;;;;;;;6.70;6.10;;;;;;;15.96;79.20;97993.59;5052953;28;20234;-89
2023/06/12 04:20:11;;;;;;;6.83;6.23;;;;;;;16.13;77.97;97981.34;5052238;28;20215;-90
2023/06/12 04:22:40;;;;;;;7.30;6.27;;;;;;;16.20;77.23;97985.94;5053016;28;20204;-90
2023/06/12 04:25:10;;;;;;;6.87;5.97;;;;;;;16.26;77.00;97986.22;5052830;28;20710;-89
2023/06/12 04:27:36;;;;;;;6.87;6.00;;;;;;;16.39;76.18;97984.09;5052710;28;20250;-89
2023/06/12 04:30:04;;;;;;;6.57;5.93;;;;;;;16.42;76.30;97985.66;5052125;28;20270;-89
2023/06/12 04:32:31;;;;;;;6.53;5.87;;;;;;;16.51;77.19;97998.94;5052681;28;20591;-89
2023/06/12 04:34:58;;;;;;;6.43;5.80;;;;;;;16.50;77.46;97997.28;5052243;28;20236;-89
2023/06/12 04:37:25;;;;;;;6.47;5.90;;;;;;;16.49;77.52;97994.75;5052461;28;20215;-89
2023/06/12 04:39:52;;;;;;;6.93;6.23;;;;;;;16.56;76.48;97983.34;5052045;28;20290;-89
2023/06/12 04:42:20;;;;;;;7.13;6.43;;;;;;;16.60;77.09;97997.22;5052153;28;20211;-89
2023/06/12 04:44:47;;;;;;;7.77;5.83;;;;;;;16.64;77.12;97993.31;5051981;28;20663;-89
2023/06/12 04:47:14;;;;;;;9.13;6.27;;;;;;;16.69;76.98;98007.88;5052327;28;20257;-89
2023/06/12 04:49:43;;;;;;;6.53;5.83;;;;;;;16.63;77.78;98012.97;5051458;28;20230;-90
2023/06/12 04:52:12;;;;;;;7.17;6.10;;;;;;;16.70;77.71;98004.22;5052408;28;20273;-89
2023/06/12 04:54:41;;;;;;;6.50;5.90;;;;;;;16.77;78.00;98015.97;5051742;28;20319;-89
2023/06/12 04:57:12;;;;;;;9.17;6.57;;;;;;;16.99;76.61;98010.25;5052588;28;20234;-90
2023/06/12 04:59:40;;;;;;;8.27;6.47;;;;;;;17.16;76.76;98014.81;5051659;28;20208;-90
2023/06/12 05:02:07;;;;;;;8.93;6.13;;;;;;;17.48;75.28;98012.50;5052007;28;20204;-89
2023/06/12 05:04:35;;;;;;;7.73;6.27;;;;;;;17.95;71.98;97999.75;5052024;28;20230;-90
2023/06/12 05:07:04;;;;;;;8.23;5.93;;;;;;;18.48;68.82;97987.94;5052080;28;20243;-90
2023/06/12 05:09:31;;;;;;;6.60;5.90;;;;;;;18.96;66.03;97980.16;5051487;28;20216;-90
2023/06/12 05:12:00;;;;;;;6.93;6.33;;;;;;;19.42;64.83;97979.66;5051889;28;20232;-89
2023/06/12 05:14:27;;;;;;;6.63;5.90;;;;;;;19.81;62.31;97969.16;5051368;28;20637;-90
2023/06/12 05:16:55;;;;;;;6.83;6.23;;;;;;;20.02;61.47;97967.66;5051663;28;20219;-90
2023/06/12 05:19:22;;;;;;;7.00;6.20;;;;;;;20.26;60.70;97962.28;5050813;28;20215;-90
2023/06/12 05:21:49;;;;;;;9.07;6.67;;;;;;;20.52;58.97;97965.59;5051952;28;20204;-90
2023/06/12 05:24:16;;;;;;;7.73;6.20;;;;;;;20.83;58.27;97963.81;5051573;28;20232;-90
2023/06/12 05:26:42;;;;;;;6.63;6.03;;;;;;;21.22;57.50;97959.28;5051460;28;20208;-90
2023/06/12 05:29:09;;;;;;;6.83;6.23;;;;;;;21.49;56.02;97961.47;5051076;28;20583;-90
2023/06/12 05:31:36;;;;;;;6.70;5.93;;;;;;;21.66;55.95;97965.75;5051416;28;20232;-90
2023/06/12 05:34:04;;;;;;;6.90;6.30;;;;;;;21.84;55.60;97970.84;5051541;28;20219;-87
2023/06/12 05:36:30;;;;;;;7.00;6.40;;;;;;;22.11;56.35;97968.44;5051827;28;20239;-90
2023/06/12 05:38:57;;;;;;;6.67;6.03;;;;;;;22.42;55.90;97963.75;5051800;28;20437;-90
2023/06/12 05:41:23;;;;;;;7.63;5.80;;;;;;;22.73;55.78;97969.03;5051379;28;20208;-90
2023/06/12 05:43:50;;;;;;;6.83;6.07;;;;;;;22.99;53.87;97953.22;5055675;28;20209;-90
2023/06/12 05:46:18;;;;;;;7.47;6.77;;;;;;;23.12;53.10;97954.22;5056109;28;20204;-90
2023/06/12 05:48:45;;;;;;;6.27;5.67;;;;;;;23.30;53.00;97961.94;5055664;28;20243;-90
2023/06/12 05:51:13;;;;;;;6.90;6.17;;;;;;;23.46;53.16;97965.22;5055332;28;20326;-90
2023/06/12 05:53:39;;;;;;;6.37;5.77;;;;;;;23.63;52.81;97963.97;5055673;28;20318;-91
2023/06/12 05:56:06;;;;;;;6.67;6.07;;;;;;;23.85;52.41;97957.56;5055893;28;20230;-91
2023/06/12 05:58:33;;;;;;;6.20;5.63;;;;;;;24.08;52.38;97963.59;5056420;28;20204;-90
2023/06/12 06:01:00;;;;;;;6.10;5.60;;;;;;;24.39;52.13;97952.44;5055634;28;20291;-90
2023/06/12 06:03:32;;;;;;;7.87;6.13;;;;;;;24.60;51.64;97958.66;5056313;28;20243;-90
2023/06/12 06:05:59;;;;;;;6.17;5.57;;;;;;;24.88;51.21;97956.75;5056491;28;20232;-90
2023/06/12 06:08:27;;;;;;;8.13;6.40;;;;;;;25.05;49.79;97943.75;5056739;28;20640;-90
2023/06/12 06:10:53;;;;;;;6.60;6.00;;;;;;;25.08;50.13;97946.88;5055319;28;20326;-90
2023/06/12 06:13:20;;;;;;;6.50;5.90;;;;;;;25.27;48.50;97935.34;5055487;28;20212;-90
2023/06/12 06:15:48;;;;;;;6.53;5.93;;;;;;;25.41;48.69;97936.22;5054876;28;20255;-90
2023/06/12 06:18:15;;;;;;;6.40;5.80;;;;;;;25.45;49.11;97954.53;5055166;28;20207;-90
2023/06/12 06:20:41;;;;;;;6.87;5.80;;;;;;;25.60;48.70;97949.78;5054551;28;20208;-87
2023/06/12 06:23:08;;;;;;;6.50;5.83;;;;;;;25.80;47.40;97936.31;5055007;28;20208;-82
2023/06/12 06:25:36;;;;;;;6.73;5.37;;;;;;;25.91;46.61;97930.31;5054652;28;20232;-80
2023/06/12 06:28:03;;;;;;;6.00;5.40;;;;;;;25.94;45.97;97928.03;5054757;28;20212;-80
2023/06/12 06:30:29;;;;;;;6.40;5.80;;;;;;;25.94;45.92;97928.03;5053507;28;20231;-88
2023/06/12 06:32:56;;;;;;;6.67;6.07;;;;;;;26.00;46.40;97932.63;5054661;28;20298;-83
2023/06/12 06:35:22;;;;;;;6.13;5.63;;;;;;;26.06;45.97;97931.78;5054653;28;20594;-83
2023/06/12 06:37:49;;;;;;;6.03;5.43;;;;;;;26.15;46.08;97940.53;5054468;28;20583;-83
2023/06/12 06:40:16;;;;;;;6.47;5.90;;;;;;;26.25;45.97;97936.38;5054256;28;20210;-83
2023/06/12 06:42:43;;;;;;;6.27;5.63;;;;;;;26.31;45.98;97935.53;5054536;28;20215;-84
2023/06/12 06:45:11;;;;;;;10.97;6.10;;;;;;;26.42;45.43;97926.78;5054529;28;20228;-83
2023/06/12 06:47:37;;;;;;;6.00;5.50;;;;;;;26.33;45.00;97927.19;5054475;28;20208;-84
2023/06/12 06:50:06;;;;;;;6.47;5.57;;;;;;;26.29;46.32;97942.19;5053910;28;20208;-83
2023/06/12 06:52:33;;;;;;;6.30;5.70;;;;;;;26.16;46.69;97940.31;5054411;28;20239;-84
2023/06/12 06:55:00;;;;;;;6.70;6.00;;;;;;;26.21;46.54;97943.22;5054003;28;20239;-84
2023/06/12 06:57:26;;;;;;;7.88;6.47;;;;;;;26.17;47.59;97954.72;5059931;28;20204;-83
2023/06/12 06:59:55;;;;;;;6.50;5.90;;;;;;;26.17;48.78;97960.97;5060610;28;20276;-84
2023/06/12 07:02:22;;;;;;;6.28;5.68;;;;;;;26.09;47.76;97953.03;5057442;28;20212;-81
2023/06/12 07:04:49;;;;;;;6.37;5.77;;;;;;;26.03;48.53;97959.28;5055490;28;20232;-80
2023/06/12 07:07:16;;;;;;;6.63;5.47;;;;;;;25.85;47.86;97950.88;5057113;28;20239;-85
2023/06/12 07:09:42;;;;;;;7.00;5.80;;;;;;;25.37;48.72;97957.41;5056727;28;20210;-83
2023/06/12 07:12:11;;;;;;;6.40;5.80;;;;;;;24.82;49.97;97952.13;5058826;28;20224;-83
2023/06/12 07:14:37;;;;;;;6.63;5.87;;;;;;;24.28;51.36;97964.63;5059193;28;20828;-83
2023/06/12 07:17:05;;;;;;;6.57;5.93;;;;;;;23.95;53.25;97979.69;5058006;28;20586;-84
2023/06/12 07:19:32;;;;;;;7.67;5.80;;;;;;;23.52;54.45;97991.44;5059488;28;20558;-84
2023/06/12 07:21:58;;;;;;;6.43;5.80;;;;;;;23.45;54.96;97985.16;5058892;28;20212;-82
2023/06/12 07:24:25;;;;;;;6.70;6.07;;;;;;;23.33;53.84;97972.31;5056383;28;20239;-84
2023/06/12 07:26:52;;;;;;;6.30;5.70;;;;;;;23.26;55.29;97990.28;5056748;28;20204;-84
2023/06/12 07:29:19;;;;;;;7.90;6.57;;;;;;;23.20;54.66;97977.56;5058229;28;20215;-83
2023/06/12 07:31:47;;;;;;;6.17;5.57;;;;;;;23.12;54.95;97978.50;5057573;28;20227;-88
2023/06/12 07:34:16;;;;;;;6.73;6.00;;;;;;;23.18;55.95;97996.66;5064069;28;20296;-89
2023/06/12 07:36:43;;;;;;;6.53;5.93;;;;;;;23.27;53.37;97971.22;5067726;28;20242;-88
2023/06/12 07:39:09;;;;;;;7.13;6.43;;;;;;;23.23;53.83;97972.63;5059489;28;20204;-89
2023/06/12 07:41:38;;;;;;;7.37;5.90;;;;;;;23.29;56.33;98003.41;5052800;28;20212;-90
2023/06/12 07:44:05;;;;;;;6.27;5.67;;;;;;;23.40;54.84;97984.88;5052261;28;20679;-89
2023/06/12 07:46:32;;;;;;;5.93;5.43;;;;;;;23.42;55.71;97993.59;5053327;28;20208;-89
2023/06/12 07:48:58;;;;;;;6.43;5.80;;;;;;;23.49;55.24;97989.16;5053025;28;20212;-89
2023/06/12 07:51:26;;;;;;;6.13;5.63;;;;;;;23.61;54.83;97984.94;5051006;28;20231;-88
2023/06/12 07:53:53;;;;;;;6.77;6.13;;;;;;;23.72;54.82;97984.41;5053882;28;20293;-87
2023/06/12 07:56:19;;;;;;;6.90;5.97;;;;;;;23.84;54.33;97974.75;5053757;28;20211;-87
2023/06/12 07:58:46;;;;;;;6.50;5.97;;;;;;;23.96;53.77;97969.75;5052821;28;20223;-87
2023/06/12 08:01:13;;;;;;;9.30;6.00;;;;;;;24.00;54.26;97977.25;5049478;28;20204;-87
2023/06/12 08:03:42;;;;;;;6.60;6.00;;;;;;;24.12;54.59;97986.50;5052281;28;20212;-88
2023/06/12 08:06:10;;;;;;;6.40;5.80;;;;;;;24.18;53.45;97977.63;5050753;28;20683;-88
2023/06/12 08:08:42;;;;;;;6.27;5.67;;;;;;;24.13;52.90;97961.16;5052261;28;20565;-87
2023/06/12 08:11:08;;;;;;;7.40;6.20;;;;;;;24.14;52.94;97957.44;5051590;28;20232;-87
2023/06/12 08:13:35;;;;;;;6.60;5.97;;;;;;;24.34;52.42;97958.44;5052073;28;20621;-87
2023/06/12 08:16:02;;;;;;;6.53;5.97;;;;;;;24.40;51.33;97946.84;5052629;28;20277;-87
2023/06/12 08:18:29;;;;;;;6.37;5.77;;;;;;;24.42;49.89;97925.88;5052801;28;20629;-87
2023/06/12 08:20:56;;;;;;;6.30;5.80;;;;;;;24.38;52.46;97958.88;5051839;28;20212;-86
2023/06/12 08:23:23;;;;;;;6.33;5.83;;;;;;;24.34;52.42;97958.44;5052961;28;20228;-86
2023/06/12 08:25:51;;;;;;;6.13;5.57;;;;;;;24.38;51.57;97943.50;5052889;28;20228;-85
2023/06/12 08:28:17;;;;;;;6.37;5.77;;;;;;;24.45;51.23;97936.25;5052421;28;20212;-86
2023/06/12 08:30:44;;;;;;;6.20;5.60;;;;;;;24.55;47.74;97912.44;5052235;28;20208;-86
2023/06/12 08:33:11;;;;;;;6.27;5.77;;;;;;;24.31;51.03;97937.22;5051834;28;20216;-86
2023/06/12 08:35:38;;;;;;;6.60;6.00;;;;;;;24.42;50.92;97930.41;5066621;22;20301;-77
2023/06/12 08:38:04;;;;;;;6.80;6.20;;;;;;;24.74;49.06;97921.75;5050520;28;20428;-78
2023/06/12 08:40:32;;;;;;;5.87;5.37;;;;;;;24.85;49.07;97918.44;5050711;28;20322;-77
2023/06/12 08:43:00;;;;;;;7.60;5.30;;;;;;;24.90;48.14;97907.88;5051804;28;20203;-77
2023/06/12 08:45:27;;;;;;;5.90;5.30;;;;;;;25.02;48.87;97922.50;5051509;28;20741;-78
2023/06/12 08:47:56;;;;;;;5.73;5.17;;;;;;;25.13;47.77;97905.69;5051423;28;20212;-78
2023/06/12 08:50:24;;;;;;;5.47;5.00;;;;;;;25.25;48.16;97904.94;5050938;28;20219;-77
2023/06/12 08:52:52;;;;;;;5.20;4.78;;;;;;;25.62;47.39;97912.53;5051370;28;20236;-76
2023/06/12 08:55:21;;;;;;;5.77;5.27;;;;;;;25.59;44.73;97885.88;5051128;28;20234;-77
2023/06/12 08:57:48;;;;;;;5.70;5.20;;;;;;;25.44;43.90;97871.69;5051805;28;20208;-76
2023/06/12 09:00:17;;;;;;;5.30;4.80;;;;;;;25.47;45.66;97887.50;5047973;28;20658;-76
2023/06/12 09:02:45;;;;;;;5.63;5.13;;;;;;;25.54;46.58;97896.47;5049859;28;20584;-77
2023/06/12 09:05:16;;;;;;;5.55;4.95;;;;;;;25.61;45.61;97897.31;5048519;28;20285;-76
2023/06/12 09:07:46;;;;;;;5.83;5.30;;;;;;;25.57;44.32;97887.09;5048528;28;20212;-76
2023/06/12 09:10:14;;;;;;;5.60;5.07;;;;;;;25.39;44.93;97894.97;5046261;28;20666;-78
2023/06/12 09:12:43;;;;;;;6.23;5.70;;;;;;;25.40;45.94;97897.50;5050175;28;20228;-78
2023/06/12 09:15:10;;;;;;;6.30;5.73;;;;;;;25.44;45.08;97892.50;5050984;28;20227;-78
2023/06/12 09:17:40;;;;;;;6.13;5.60;;;;;;;25.34;44.61;97879.38;5038584;28;20675;-79
2023/06/12 09:20:08;;;;;;;5.70;5.20;;;;;;;25.33;44.57;97880.41;5030442;28;20303;-78
2023/06/12 09:22:38;;;;;;;6.20;5.60;;;;;;;25.52;44.41;97882.31;5031098;28;20675;-77
2023/06/12 09:25:07;;;;;;;6.93;5.90;;;;;;;25.69;43.88;97875.47;5031281;28;20236;-78
2023/06/12 09:27:42;;;;;;;5.88;5.20;;;;;;;25.74;42.80;97869.44;5031249;28;20209;-78
2023/06/12 09:30:10;;;;;;;6.27;5.27;;;;;;;25.99;44.86;97887.63;5030444;28;20270;-79
2023/06/12 09:32:36;;;;;;;5.73;5.23;;;;;;;26.06;43.80;97883.03;5029584;28;20232;-77
2023/06/12 09:35:05;;;;;;;5.77;5.07;;;;;;;26.04;42.16;97862.59;5030778;28;20327;-79
2023/06/12 09:37:32;;;;;;;6.67;5.23;;;;;;;25.84;43.28;97867.97;5030959;28;20216;-81
2023/06/12 09:40:09;;;;;;;5.90;5.40;;;;;;;25.54;43.79;97872.13;5029894;28;20212;-81
2023/06/12 09:42:36;;;;;;;6.20;5.60;;;;;;;25.43;44.66;97874.59;5030874;28;20208;-82
2023/06/12 09:45:11;;;;;;;5.87;5.37;;;;;;;25.43;43.83;97870.00;5030745;28;20235;-81
2023/06/12 09:47:41;;;;;;;5.43;5.00;;;;;;;25.26;44.50;97876.00;5030835;28;20248;-80
2023/06/12 09:50:11;;;;;;;5.80;5.30;;;;;;;24.97;44.77;97874.44;5030378;28;20595;-81
2023/06/12 09:52:40;;;;;;;5.50;5.10;;;;;;;25.10;46.17;97893.41;5031030;28;20795;-79
2023/06/12 09:55:08;;;;;;;5.33;4.90;;;;;;;25.38;45.19;97877.94;5031060;28;20236;-83
2023/06/12 09:57:38;;;;;;;5.87;5.37;;;;;;;25.34;43.15;97867.69;5030866;28;20638;-83
2023/06/12 10:00:07;;;;;;;5.40;4.90;;;;;;;25.05;43.62;97858.00;5030609;28;20208;-79
2023/06/12 10:02:34;;;;;;;5.50;5.00;;;;;;;25.15;45.09;97877.41;5031030;28;20292;-83
2023/06/12 10:05:06;;;;;;;5.80;5.20;;;;;;;25.37;44.77;97870.81;5030902;28;20228;-84
2023/06/12 10:07:41;;;;;;;5.77;5.23;;;;;;;25.62;43.28;97855.69;5029910;28;20208;-82
2023/06/12 10:10:08;;;;;;;5.80;5.27;;;;;;;25.81;43.85;97863.00;5030313;28;20220;-84
2023/06/12 10:12:37;;;;;;;6.40;4.87;;;;;;;25.77;43.30;97867.16;5030505;28;20233;-82
2023/06/12 10:15:04;;;;;;;6.37;5.17;;;;;;;25.88;44.06;97877.38;5028584;28;20235;-82
2023/06/12 10:17:32;;;;;;;5.77;4.63;;;;;;;26.00;41.71;97837.81;5028690;28;20205;-85
2023/06/12 10:19:59;;;;;;;5.50;5.00;;;;;;;26.00;41.86;97835.09;5036687;28;20200;-83
2023/06/12 10:22:26;;;;;;;5.60;5.07;;;;;;;26.00;41.56;97835.09;5054577;28;20205;-81
2023/06/12 10:24:57;;;;;;;5.57;4.97;;;;;;;26.04;41.25;97835.50;5048419;28;20259;-78
2023/06/12 10:27:24;;;;;;;5.30;4.80;;;;;;;26.06;41.93;97839.69;5045105;28;20219;-79
2023/06/12 10:29:56;;;;;;;5.10;4.70;;;;;;;26.18;41.29;97829.88;5054144;28;20209;-86
2023/06/12 10:32:23;;;;;;;7.03;4.90;;;;;;;26.23;40.90;97827.38;5047068;28;20623;-86
2023/06/12 10:34:54;;;;;;;5.60;5.10;;;;;;;26.28;43.58;97860.06;5042046;28;20252;-85
2023/06/12 10:37:22;;;;;;;6.45;5.60;;;;;;;26.35;41.41;97831.09;5047107;28;20193;-85
2023/06/12 10:39:50;;;;;;;5.30;4.80;;;;;;;26.26;41.68;97835.06;5043319;28;20215;-83
2023/06/12 10:42:18;;;;;;;5.35;4.85;;;;;;;26.29;40.52;97817.56;5052473;28;20211;-83
2023/06/12 10:44:49;;;;;;;5.10;4.60;;;;;;;26.28;41.08;97821.31;5047247;28;20235;-83
2023/06/12 10:47:21;;;;;;;5.25;4.72;;;;;;;26.34;41.34;97821.28;5044925;28;20208;-86
2023/06/12 10:49:58;;;;;;;5.60;4.83;;;;;;;26.33;41.77;97830.47;5034891;28;20258;-82
2023/06/12 10:52:25;;;;;;;6.20;5.13;;;;;;;26.32;42.48;97831.50;5035185;28;20228;-85
2023/06/12 10:55:20;;;;;;;6.30;5.00;;;;;;;26.00;40.46;97805.31;5034587;28;20599;-82
2023/06/12 10:57:52;;;;;;;6.32;4.93;;;;;;;25.79;41.09;97810.09;5033834;28;20217;-83
2023/06/12 11:00:20;;;;;;;5.60;5.10;;;;;;;25.89;41.54;97808.63;5032978;28;20236;-84
2023/06/12 11:02:48;;;;;;;5.70;5.20;;;;;;;26.09;41.89;97811.34;5033875;28;20208;-83
2023/06/12 11:05:19;;;;;;;5.32;4.47;;;;;;;26.23;41.01;97808.41;5033866;28;20768;-87
2023/06/12 11:07:47;;;;;;;5.27;4.77;;;;;;;26.27;41.08;97809.63;5034078;28;20302;-85
2023/06/12 11:10:15;;;;;;;5.50;4.53;;;;;;;26.36;41.26;97819.22;5033772;28;20830;-86
2023/06/12 11:12:47;;;;;;;5.30;4.80;;;;;;;26.39;39.62;97786.25;5033756;28;20244;-85
2023/06/12 11:15:15;;;;;;;6.07;5.00;;;;;;;26.46;40.56;97792.47;5033736;28;20251;-86
2023/06/12 11:17:43;;;;;;;5.80;5.00;;;;;;;26.53;41.33;97798.72;5033669;28;20204;-85
2023/06/12 11:20:10;;;;;;;5.72;5.22;;;;;;;26.67;42.11;97811.22;5032963;28;20236;-86
2023/06/12 11:22:37;;;;;;;5.93;5.35;;;;;;;26.74;42.61;97814.72;5033415;28;20209;-85
2023/06/12 11:25:05;;;;;;;5.63;5.13;;;;;;;26.78;42.48;97813.25;5033510;28;20307;-87
2023/06/12 11:27:32;;;;;;;5.22;4.82;;;;;;;26.86;38.50;97760.63;5033555;28;20271;-86
2023/06/12 11:30:07;;;;;;;5.00;4.45;;;;;;;26.79;40.17;97785.09;5032858;28;20216;-85
2023/06/12 11:32:35;;;;;;;5.82;4.90;;;;;;;26.61;39.17;97767.84;5033103;28;20224;-85
2023/06/12 11:35:03;;;;;;;5.40;4.90;;;;;;;26.54;41.31;97788.72;5032992;28;20665;-86
2023/06/12 11:37:29;;;;;;;5.28;4.78;;;;;;;26.60;40.44;97783.31;5032978;28;20205;-86